Karapiperis 14 — SW5718 — position and weather

sailwx.info

Track history (hours):
 
Tides and Currents Weather Stations Pressure Air Temp Water Temp Dewpoint Dewpoint Depression Visibility Wind Speed Wind Dir Waves Ship Positions

Karapiperis 14

Last reported at 2017-Sep-19 08:31 UTC. Time now 2017-Sep-21 07:11 UTC.
Position N 37°58' E 023°34'.

Length 30 m; draft 5 m.

Type: Tug. MMSI: 239623000.

Date/timePositionNaut miles runAvg speedWind from/ knotsBaromVisibWave heightAir tempDewpointWater temp
2017-Sep-19 08:31N 37°58' E 023°34'0 0.0
2017-Sep-19 08:30N 37°58' E 023°34'  
2017-Sep-15 10:23N 37°58' E 023°34'0 0.0
2017-Sep-15 10:00N 37°58' E 023°34'0 0.0
2017-Sep-15 09:30N 37°58' E 023°34'0 0.0
2017-Sep-15 09:00N 37°58' E 023°34'0 0.0
2017-Sep-15 08:30N 37°58' E 023°34'0 0.0
2017-Sep-15 08:01N 37°58' E 023°34'0 0.0
2017-Sep-15 07:31N 37°58' E 023°34'0 0.0
2017-Sep-15 07:01N 37°58' E 023°34'0 0.0
2017-Sep-15 06:30N 37°58' E 023°34'0 0.0
2017-Sep-15 06:01N 37°58' E 023°34'0 0.0
2017-Sep-15 05:30N 37°58' E 023°34'0 0.0
2017-Sep-15 05:01N 37°58' E 023°34'0 0.0
2017-Sep-14 20:00N 37°58' E 023°34'1 1.4
2017-Sep-14 19:30N 37°57' E 023°35'1 1.3
2017-Sep-14 19:00N 37°58' E 023°34'0 0.0
2017-Sep-14 18:30N 37°58' E 023°34'0 0.0
2017-Sep-14 18:01N 37°58' E 023°34'2 3.9
2017-Sep-14 17:30N 37°57' E 023°37'2 3.9
2017-Sep-14 17:00N 37°58' E 023°34'0 0.0
2017-Sep-14 16:30N 37°58' E 023°34'2 3.3
2017-Sep-14 16:00N 37°58' E 023°33'4 8.2
2017-Sep-14 15:30N 38°02' E 023°35'0 0.1
2017-Sep-14 15:00N 38°02' E 023°35'3 5.5
2017-Sep-14 14:30N 37°60' E 023°33'2 4.9
2017-Sep-14 14:00N 37°58' E 023°34'0 0.0
2017-Sep-14 13:30N 37°58' E 023°34'0 0.0
2017-Sep-14 13:00N 37°58' E 023°34'2 3.3
2017-Sep-14 12:31N 37°57' E 023°37'1 1.6
2017-Sep-14 12:00N 37°57' E 023°36'1 1.6
2017-Sep-14 11:31N 37°58' E 023°36'2 3.1
2017-Sep-14 11:00N 37°58' E 023°34'0 0.0
2017-Sep-14 10:30N 37°58' E 023°34'1 1.7
2017-Sep-14 10:00N 37°57' E 023°35'1 1.3
2017-Sep-14 09:30N 37°57' E 023°35'1 2.6
2017-Sep-14 09:00N 37°57' E 023°36'1 1.4
2017-Sep-14 08:30N 37°57' E 023°35'1 2.8
2017-Sep-14 08:00N 37°56' E 023°36'1 2.1
2017-Sep-14 07:30N 37°57' E 023°36'1 2.1
2017-Sep-14 07:01N 37°57' E 023°35'0 0.4
2017-Sep-14 06:30N 37°58' E 023°34'0 0.0
2017-Sep-14 06:00N 37°58' E 023°34'0 0.0
2017-Sep-14 05:30N 37°58' E 023°34'0 0.0
2017-Sep-14 05:00N 37°58' E 023°34'0 0.0
2017-Sep-14 04:29N 37°58' E 023°34'0 0.0
2017-Sep-14 04:00N 37°58' E 023°34'0 0.0
2017-Sep-14 03:23N 37°58' E 023°34'0 0.0
2017-Sep-13 14:34N 37°58' E 023°34'0 0.0
2017-Sep-13 14:30N 37°58' E 023°34'1 1.6
2017-Sep-13 14:01N 37°57' E 023°35'1 1.2
2017-Sep-13 13:30N 37°57' E 023°36'1 2.3
2017-Sep-13 13:00N 37°58' E 023°34'0 0.0
2017-Sep-13 12:30N 37°58' E 023°34'0 0.7
2017-Sep-13 12:00N 37°57' E 023°35'0 0.7
2017-Sep-13 11:30N 37°58' E 023°34'0 0.0
2017-Sep-13 10:59N 37°58' E 023°34'0 0.0
2017-Sep-13 10:30N 37°58' E 023°34'0 0.0
2017-Sep-13 10:00N 37°58' E 023°34'0 0.0
2017-Sep-13 09:28N 37°58' E 023°34'1 1.4
2017-Sep-13 09:01N 37°57' E 023°34'4 7.5
2017-Sep-13 08:30N 38°01' E 023°35'0 0.7
2017-Sep-13 08:00N 38°01' E 023°35'4 7.3
2017-Sep-13 07:30N 37°58' E 023°34'0 0.0
2017-Sep-13 06:59N 37°58' E 023°34'0 0.0
2017-Sep-13 06:30N 37°58' E 023°34'0 0.0
2017-Sep-13 05:59N 37°58' E 023°34'0 0.0
2017-Sep-13 05:30N 37°58' E 023°34'1 2.1
2017-Sep-13 05:00N 37°57' E 023°36'1 1.4
2017-Sep-13 04:30N 37°57' E 023°35'0 0.4
2017-Sep-13 04:00N 37°57' E 023°35'0 0.9
2017-Sep-13 03:30N 37°57' E 023°35'0 0.6
2017-Sep-13 02:59N 37°58' E 023°34'0 0.0
2017-Sep-12 10:56N 37°58' E 023°34'0 0.0
2017-Sep-12 10:30N 37°58' E 023°34'0 0.0
2017-Sep-12 10:00N 37°58' E 023°34'0 0.0
2017-Sep-12 09:30N 37°58' E 023°34'0 0.0
2017-Sep-12 09:00N 37°58' E 023°34'0 0.0
2017-Sep-12 08:30N 37°58' E 023°34'0 0.0
2017-Sep-12 08:00N 37°58' E 023°34'0 0.0
2017-Sep-12 07:30N 37°58' E 023°34'0 0.0
2017-Sep-12 07:00N 37°58' E 023°34'0 0.0
2017-Sep-12 06:30N 37°58' E 023°34'1 1.8
2017-Sep-12 06:00N 37°57' E 023°35'0 0.3
2017-Sep-12 05:30N 37°57' E 023°35'2 3.4
2017-Sep-12 05:00N 37°55' E 023°35'2 4.2
2017-Sep-12 04:30N 37°57' E 023°35'0 0.9
2017-Sep-12 04:00N 37°58' E 023°34'0 0.0
2017-Sep-12 03:30N 37°58' E 023°34'0 0.0
2017-Sep-12 03:00N 37°58' E 023°34'0 0.0
2017-Sep-11 15:14N 37°58' E 023°34'0 0.0
2017-Sep-11 15:00N 37°58' E 023°34'1 1.4
2017-Sep-11 14:30N 37°57' E 023°34'0 0.4
2017-Sep-11 14:00N 37°58' E 023°34'0 0.9
2017-Sep-11 13:30N 37°57' E 023°34'0 0.5
2017-Sep-11 13:00N 37°58' E 023°34'0 0.0
2017-Sep-11 12:30N 37°58' E 023°34'0 0.0
2017-Sep-11 12:00N 37°58' E 023°34'0 0.0
2017-Sep-11 11:30N 37°58' E 023°34'2 3.1
2017-Sep-11 11:00N 37°58' E 023°36'1 2.2
2017-Sep-11 10:30N 37°57' E 023°36'2 4.2
2017-Sep-11 10:00N 37°57' E 023°34'1 2.2
2017-Sep-11 09:30N 37°58' E 023°33'2 4.9
2017-Sep-11 09:00N 38°01' E 023°33'1 2.4
2017-Sep-11 08:30N 38°02' E 023°32'0 0.0
2017-Sep-11 08:00N 38°02' E 023°32'1 2.0
2017-Sep-11 07:30N 38°02' E 023°31'1 2.1
2017-Sep-11 07:00N 38°02' E 023°30'0 0.7
2017-Sep-11 06:30N 38°02' E 023°30'1 1.3
2017-Sep-11 06:00N 38°01' E 023°31'4 7.3
2017-Sep-11 05:30N 37°58' E 023°33'1 2.6
2017-Sep-11 05:00N 37°58' E 023°34'0 0.0
2017-Sep-11 04:30N 37°58' E 023°34'0 0.0
2017-Sep-11 04:00N 37°58' E 023°34'0 0.0
2017-Sep-11 03:30N 37°58' E 023°34'0 0.0
2017-Sep-11 03:00N 37°58' E 023°34'0 0.0
2017-Sep-10 11:54N 37°58' E 023°34'1 1.7
2017-Sep-10 11:30N 37°57' E 023°35'1 2.0
2017-Sep-10 11:01N 37°56' E 023°35'1 1.5
2017-Sep-10 10:30N 37°57' E 023°35'2 4.4
2017-Sep-10 10:00N 37°59' E 023°33'4 7.5
2017-Sep-10 09:30N 38°02' E 023°36'1 2.0
2017-Sep-10 09:00N 38°01' E 023°34'1 2.7
2017-Sep-10 08:30N 38°00' E 023°33'3 5.6
2017-Sep-10 08:00N 37°58' E 023°33'1 2.3
2017-Sep-10 07:30N 37°58' E 023°34'0 0.6
2017-Sep-10 07:00N 37°57' E 023°35'1 2.2
2017-Sep-10 06:30N 37°56' E 023°35'1 1.4
2017-Sep-10 06:00N 37°56' E 023°35'0 0.9
2017-Sep-10 05:30N 37°56' E 023°35'1 2.3
2017-Sep-10 05:00N 37°57' E 023°35'0 0.2
2017-Sep-10 04:30N 37°57' E 023°35'1 1.4
2017-Sep-10 04:00N 37°58' E 023°34'0 0.0
2017-Sep-10 03:30N 37°58' E 023°34'0 0.0
2017-Sep-10 03:01N 37°58' E 023°34'0 0.0
2017-Sep-09 16:41N 37°58' E 023°34'0 0.7
2017-Sep-09 16:31N 37°57' E 023°34'3 6.6
2017-Sep-09 16:00N 38°01' E 023°34'1 2.5
2017-Sep-09 15:30N 38°02' E 023°35'1 1.8
2017-Sep-09 15:00N 38°01' E 023°34'1 1.9
2017-Sep-09 14:31N 38°01' E 023°35'0 0.0
2017-Sep-09 14:00N 38°01' E 023°35'0 0.0
2017-Sep-09 13:30N 38°01' E 023°35'0 0.2
2017-Sep-09 13:00N 38°01' E 023°36'0 0.2
2017-Sep-09 12:30N 38°01' E 023°36'0 0.0
2017-Sep-09 11:41N 38°01' E 023°36'0 0.0
2017-Sep-09 11:30N 38°01' E 023°36'0 0.0
2017-Sep-09 11:00N 38°01' E 023°36'0 0.0
2017-Sep-09 10:30N 38°01' E 023°36'0 0.0
2017-Sep-09 10:00N 38°01' E 023°36'0 0.0
2017-Sep-09 09:30N 38°01' E 023°36'0 0.0
2017-Sep-09 09:00N 38°01' E 023°36'  
Track history (hours):
 
Tides and Currents Weather Stations Pressure Air Temp Water Temp Dewpoint Dewpoint Depression Visibility Wind Speed Wind Dir Waves Ship Positions

Karapiperis 14

Last reported at 2017-Sep-19 08:31 UTC. Time now 2017-Sep-21 07:11 UTC.
Position N 37°58' E 023°34'.

Length 30 m; draft 5 m.

Type: Tug. MMSI: 239623000.

Date/timePositionNaut miles runAvg speedWind from/ knotsBaromVisibWave heightAir tempDewpointWater temp
2017-Sep-19 08:31N 37°58' E 023°34'0 0.0
2017-Sep-19 08:30N 37°58' E 023°34'  
2017-Sep-15 10:23N 37°58' E 023°34'0 0.0
2017-Sep-15 10:00N 37°58' E 023°34'0 0.0
2017-Sep-15 09:30N 37°58' E 023°34'0 0.0
2017-Sep-15 09:00N 37°58' E 023°34'0 0.0
2017-Sep-15 08:30N 37°58' E 023°34'0 0.0
2017-Sep-15 08:01N 37°58' E 023°34'0 0.0
2017-Sep-15 07:31N 37°58' E 023°34'0 0.0
2017-Sep-15 07:01N 37°58' E 023°34'0 0.0
2017-Sep-15 06:30N 37°58' E 023°34'0 0.0
2017-Sep-15 06:01N 37°58' E 023°34'0 0.0
2017-Sep-15 05:30N 37°58' E 023°34'0 0.0
2017-Sep-15 05:01N 37°58' E 023°34'0 0.0
2017-Sep-14 20:00N 37°58' E 023°34'1 1.4
2017-Sep-14 19:30N 37°57' E 023°35'1 1.3
2017-Sep-14 19:00N 37°58' E 023°34'0 0.0
2017-Sep-14 18:30N 37°58' E 023°34'0 0.0
2017-Sep-14 18:01N 37°58' E 023°34'2 3.9
2017-Sep-14 17:30N 37°57' E 023°37'2 3.9
2017-Sep-14 17:00N 37°58' E 023°34'0 0.0
2017-Sep-14 16:30N 37°58' E 023°34'2 3.3
2017-Sep-14 16:00N 37°58' E 023°33'4 8.2
2017-Sep-14 15:30N 38°02' E 023°35'0 0.1
2017-Sep-14 15:00N 38°02' E 023°35'3 5.5
2017-Sep-14 14:30N 37°60' E 023°33'2 4.9
2017-Sep-14 14:00N 37°58' E 023°34'0 0.0
2017-Sep-14 13:30N 37°58' E 023°34'0 0.0
2017-Sep-14 13:00N 37°58' E 023°34'2 3.3
2017-Sep-14 12:31N 37°57' E 023°37'1 1.6
2017-Sep-14 12:00N 37°57' E 023°36'1 1.6
2017-Sep-14 11:31N 37°58' E 023°36'2 3.1
2017-Sep-14 11:00N 37°58' E 023°34'0 0.0
2017-Sep-14 10:30N 37°58' E 023°34'1 1.7
2017-Sep-14 10:00N 37°57' E 023°35'1 1.3
2017-Sep-14 09:30N 37°57' E 023°35'1 2.6
2017-Sep-14 09:00N 37°57' E 023°36'1 1.4
2017-Sep-14 08:30N 37°57' E 023°35'1 2.8
2017-Sep-14 08:00N 37°56' E 023°36'1 2.1
2017-Sep-14 07:30N 37°57' E 023°36'1 2.1
2017-Sep-14 07:01N 37°57' E 023°35'0 0.4
2017-Sep-14 06:30N 37°58' E 023°34'0 0.0
2017-Sep-14 06:00N 37°58' E 023°34'0 0.0
2017-Sep-14 05:30N 37°58' E 023°34'0 0.0
2017-Sep-14 05:00N 37°58' E 023°34'0 0.0
2017-Sep-14 04:29N 37°58' E 023°34'0 0.0
2017-Sep-14 04:00N 37°58' E 023°34'0 0.0
2017-Sep-14 03:23N 37°58' E 023°34'0 0.0
2017-Sep-13 14:34N 37°58' E 023°34'0 0.0
2017-Sep-13 14:30N 37°58' E 023°34'1 1.6
2017-Sep-13 14:01N 37°57' E 023°35'1 1.2
2017-Sep-13 13:30N 37°57' E 023°36'1 2.3
2017-Sep-13 13:00N 37°58' E 023°34'0 0.0
2017-Sep-13 12:30N 37°58' E 023°34'0 0.7
2017-Sep-13 12:00N 37°57' E 023°35'0 0.7
2017-Sep-13 11:30N 37°58' E 023°34'0 0.0
2017-Sep-13 10:59N 37°58' E 023°34'0 0.0
2017-Sep-13 10:30N 37°58' E 023°34'0 0.0
2017-Sep-13 10:00N 37°58' E 023°34'0 0.0
2017-Sep-13 09:28N 37°58' E 023°34'1 1.4
2017-Sep-13 09:01N 37°57' E 023°34'4 7.5
2017-Sep-13 08:30N 38°01' E 023°35'0 0.7
2017-Sep-13 08:00N 38°01' E 023°35'4 7.3
2017-Sep-13 07:30N 37°58' E 023°34'0 0.0
2017-Sep-13 06:59N 37°58' E 023°34'0 0.0
2017-Sep-13 06:30N 37°58' E 023°34'0 0.0
2017-Sep-13 05:59N 37°58' E 023°34'0 0.0
2017-Sep-13 05:30N 37°58' E 023°34'1 2.1
2017-Sep-13 05:00N 37°57' E 023°36'1 1.4
2017-Sep-13 04:30N 37°57' E 023°35'0 0.4
2017-Sep-13 04:00N 37°57' E 023°35'0 0.9
2017-Sep-13 03:30N 37°57' E 023°35'0 0.6
2017-Sep-13 02:59N 37°58' E 023°34'0 0.0
2017-Sep-12 10:56N 37°58' E 023°34'0 0.0
2017-Sep-12 10:30N 37°58' E 023°34'0 0.0
2017-Sep-12 10:00N 37°58' E 023°34'0 0.0
2017-Sep-12 09:30N 37°58' E 023°34'0 0.0
2017-Sep-12 09:00N 37°58' E 023°34'0 0.0
2017-Sep-12 08:30N 37°58' E 023°34'0 0.0
2017-Sep-12 08:00N 37°58' E 023°34'0 0.0
2017-Sep-12 07:30N 37°58' E 023°34'0 0.0
2017-Sep-12 07:00N 37°58' E 023°34'0 0.0
2017-Sep-12 06:30N 37°58' E 023°34'1 1.8
2017-Sep-12 06:00N 37°57' E 023°35'0 0.3
2017-Sep-12 05:30N 37°57' E 023°35'2 3.4
2017-Sep-12 05:00N 37°55' E 023°35'2 4.2
2017-Sep-12 04:30N 37°57' E 023°35'0 0.9
2017-Sep-12 04:00N 37°58' E 023°34'0 0.0
2017-Sep-12 03:30N 37°58' E 023°34'0 0.0
2017-Sep-12 03:00N 37°58' E 023°34'0 0.0
2017-Sep-11 15:14N 37°58' E 023°34'0 0.0
2017-Sep-11 15:00N 37°58' E 023°34'1 1.4
2017-Sep-11 14:30N 37°57' E 023°34'0 0.4
2017-Sep-11 14:00N 37°58' E 023°34'0 0.9
2017-Sep-11 13:30N 37°57' E 023°34'0 0.5
2017-Sep-11 13:00N 37°58' E 023°34'0 0.0
2017-Sep-11 12:30N 37°58' E 023°34'0 0.0
2017-Sep-11 12:00N 37°58' E 023°34'0 0.0
2017-Sep-11 11:30N 37°58' E 023°34'2 3.1
2017-Sep-11 11:00N 37°58' E 023°36'1 2.2
2017-Sep-11 10:30N 37°57' E 023°36'2 4.2
2017-Sep-11 10:00N 37°57' E 023°34'1 2.2
2017-Sep-11 09:30N 37°58' E 023°33'2 4.9
2017-Sep-11 09:00N 38°01' E 023°33'1 2.4
2017-Sep-11 08:30N 38°02' E 023°32'0 0.0
2017-Sep-11 08:00N 38°02' E 023°32'1 2.0
2017-Sep-11 07:30N 38°02' E 023°31'1 2.1
2017-Sep-11 07:00N 38°02' E 023°30'0 0.7
2017-Sep-11 06:30N 38°02' E 023°30'1 1.3
2017-Sep-11 06:00N 38°01' E 023°31'4 7.3
2017-Sep-11 05:30N 37°58' E 023°33'1 2.6
2017-Sep-11 05:00N 37°58' E 023°34'0 0.0
2017-Sep-11 04:30N 37°58' E 023°34'0 0.0
2017-Sep-11 04:00N 37°58' E 023°34'0 0.0
2017-Sep-11 03:30N 37°58' E 023°34'0 0.0
2017-Sep-11 03:00N 37°58' E 023°34'0 0.0
2017-Sep-10 11:54N 37°58' E 023°34'1 1.7
2017-Sep-10 11:30N 37°57' E 023°35'1 2.0
2017-Sep-10 11:01N 37°56' E 023°35'1 1.5
2017-Sep-10 10:30N 37°57' E 023°35'2 4.4
2017-Sep-10 10:00N 37°59' E 023°33'4 7.5
2017-Sep-10 09:30N 38°02' E 023°36'1 2.0
2017-Sep-10 09:00N 38°01' E 023°34'1 2.7
2017-Sep-10 08:30N 38°00' E 023°33'3 5.6
2017-Sep-10 08:00N 37°58' E 023°33'1 2.3
2017-Sep-10 07:30N 37°58' E 023°34'0 0.6
2017-Sep-10 07:00N 37°57' E 023°35'1 2.2
2017-Sep-10 06:30N 37°56' E 023°35'1 1.4
2017-Sep-10 06:00N 37°56' E 023°35'0 0.9
2017-Sep-10 05:30N 37°56' E 023°35'1 2.3
2017-Sep-10 05:00N 37°57' E 023°35'0 0.2
2017-Sep-10 04:30N 37°57' E 023°35'1 1.4
2017-Sep-10 04:00N 37°58' E 023°34'0 0.0
2017-Sep-10 03:30N 37°58' E 023°34'0 0.0
2017-Sep-10 03:01N 37°58' E 023°34'0 0.0
2017-Sep-09 16:41N 37°58' E 023°34'0 0.7
2017-Sep-09 16:31N 37°57' E 023°34'3 6.6
2017-Sep-09 16:00N 38°01' E 023°34'1 2.5
2017-Sep-09 15:30N 38°02' E 023°35'1 1.8
2017-Sep-09 15:00N 38°01' E 023°34'1 1.9
2017-Sep-09 14:31N 38°01' E 023°35'0 0.0
2017-Sep-09 14:00N 38°01' E 023°35'0 0.0
2017-Sep-09 13:30N 38°01' E 023°35'0 0.2
2017-Sep-09 13:00N 38°01' E 023°36'0 0.2
2017-Sep-09 12:30N 38°01' E 023°36'0 0.0
2017-Sep-09 11:41N 38°01' E 023°36'0 0.0
2017-Sep-09 11:30N 38°01' E 023°36'0 0.0
2017-Sep-09 11:00N 38°01' E 023°36'0 0.0
2017-Sep-09 10:30N 38°01' E 023°36'0 0.0
2017-Sep-09 10:00N 38°01' E 023°36'0 0.0
2017-Sep-09 09:30N 38°01' E 023°36'0 0.0
2017-Sep-09 09:00N 38°01' E 023°36'  

Dump ship's entire track history